createdAt,value
2023-01-15T00:02:19.611Z,8.00
2023-01-15T00:04:46.801Z,8.00
2023-01-15T00:07:13.955Z,8.00
2023-01-15T00:09:40.946Z,8.00
2023-01-15T00:12:08.155Z,7.90
2023-01-15T00:14:35.314Z,7.90
2023-01-15T00:17:02.460Z,7.90
2023-01-15T00:19:29.518Z,7.80
2023-01-15T00:21:58.415Z,7.80
2023-01-15T00:24:44.115Z,7.80
2023-01-15T00:27:30.035Z,7.80
2023-01-15T00:29:57.484Z,7.80
2023-01-15T00:32:27.809Z,7.80
2023-01-15T00:34:56.033Z,7.70
2023-01-15T00:37:23.122Z,7.80
2023-01-15T00:39:50.202Z,7.70
2023-01-15T00:42:17.889Z,7.70
2023-01-15T00:44:46.927Z,7.70
2023-01-15T00:47:17.079Z,7.70
2023-01-15T00:49:45.034Z,7.70
2023-01-15T00:52:12.713Z,7.70
2023-01-15T00:54:39.788Z,7.70
2023-01-15T00:57:06.986Z,7.70
2023-01-15T00:59:34.195Z,7.70
2023-01-15T01:02:01.417Z,7.60
2023-01-15T01:04:28.622Z,7.60
2023-01-15T01:06:55.736Z,7.60
2023-01-15T01:09:23.100Z,7.60
2023-01-15T01:11:50.479Z,7.60
2023-01-15T01:14:17.980Z,7.60
2023-01-15T01:16:45.293Z,7.50
2023-01-15T01:19:18.457Z,7.60
2023-01-15T01:21:47.096Z,7.50
2023-01-15T01:24:17.214Z,7.50
2023-01-15T01:26:45.470Z,7.50
2023-01-15T01:29:22.941Z,7.50
2023-01-15T01:31:51.386Z,7.50
2023-01-15T01:34:18.966Z,7.50
2023-01-15T01:36:46.147Z,7.50
2023-01-15T01:39:16.911Z,7.50
2023-01-15T01:41:44.595Z,7.50
2023-01-15T01:44:33.133Z,7.40
2023-01-15T01:47:22.900Z,7.40
2023-01-15T01:49:54.247Z,7.40
2023-01-15T01:52:49.473Z,7.40
2023-01-15T01:55:19.848Z,7.50
2023-01-15T01:57:48.230Z,7.40
2023-01-15T02:00:15.935Z,7.40
2023-01-15T02:02:46.960Z,7.40
2023-01-15T02:05:39.880Z,7.40
2023-01-15T02:08:07.659Z,7.40
2023-01-15T02:10:35.356Z,7.40
2023-01-15T02:13:14.810Z,7.40
2023-01-15T02:15:47.635Z,7.40
2023-01-15T02:18:20.603Z,7.30
2023-01-15T02:20:59.901Z,7.30
2023-01-15T02:24:05.357Z,7.30
2023-01-15T02:27:06.733Z,7.30
2023-01-15T02:30:03.956Z,7.30
2023-01-15T02:32:37.211Z,7.30
2023-01-15T02:35:12.192Z,7.20
2023-01-15T02:37:45.168Z,7.30
2023-01-15T02:40:21.665Z,7.20
2023-01-15T02:42:50.453Z,7.30
2023-01-15T02:45:24.371Z,7.20
2023-01-15T02:47:54.335Z,7.20
2023-01-15T02:50:29.972Z,7.20
2023-01-15T02:53:01.551Z,7.20
2023-01-15T02:55:39.566Z,7.20
2023-01-15T02:58:12.461Z,7.20
2023-01-15T03:00:47.370Z,7.20
2023-01-15T03:03:26.495Z,7.20
2023-01-15T03:06:22.100Z,7.20
2023-01-15T03:08:50.742Z,7.10
2023-01-15T03:11:19.555Z,7.10
2023-01-15T03:14:16.656Z,7.10
2023-01-15T03:17:11.928Z,7.10
2023-01-15T03:20:09.700Z,7.10
2023-01-15T03:22:44.269Z,7.10
2023-01-15T03:25:26.411Z,7.10
2023-01-15T03:28:01.030Z,7.10
2023-01-15T03:30:29.449Z,7.00
2023-01-15T03:32:56.686Z,7.00
2023-01-15T03:35:42.392Z,7.00
2023-01-15T03:38:14.268Z,7.00
2023-01-15T03:41:08.658Z,7.00
2023-01-15T03:44:07.711Z,7.00
2023-01-15T03:46:50.027Z,7.00
2023-01-15T03:49:44.566Z,7.00
2023-01-15T03:52:31.112Z,7.00
2023-01-15T03:55:26.855Z,7.00
2023-01-15T03:58:14.311Z,7.00
2023-01-15T04:00:49.284Z,7.00
2023-01-15T04:03:20.366Z,7.00
2023-01-15T04:05:49.566Z,7.00
2023-01-15T04:08:19.107Z,6.90
2023-01-15T04:10:56.597Z,6.90
2023-01-15T04:13:30.851Z,6.90
2023-01-15T04:15:59.451Z,6.90
2023-01-15T04:18:26.813Z,6.90
2023-01-15T04:20:56.537Z,6.90
2023-01-15T04:23:23.771Z,6.80
2023-01-15T04:25:50.999Z,6.90
2023-01-15T04:28:18.030Z,6.90
2023-01-15T04:30:45.267Z,6.90
2023-01-15T04:33:12.432Z,6.80
2023-01-15T04:35:39.501Z,6.90
2023-01-15T04:38:06.630Z,6.80
2023-01-15T04:40:52.458Z,6.80
2023-01-15T04:43:37.896Z,6.80
2023-01-15T04:46:05.154Z,6.80
2023-01-15T04:48:32.312Z,6.80
2023-01-15T04:51:04.415Z,6.70
2023-01-15T04:53:31.594Z,6.70
2023-01-15T04:56:02.985Z,6.70
2023-01-15T04:58:30.729Z,6.70
2023-01-15T05:01:00.677Z,6.70
2023-01-15T05:03:31.670Z,6.70
2023-01-15T05:06:02.702Z,6.70
2023-01-15T05:08:31.360Z,6.60
2023-01-15T05:11:05.367Z,6.60
2023-01-15T05:13:41.421Z,6.60
2023-01-15T05:16:15.865Z,6.60
2023-01-15T05:18:48.755Z,6.60
2023-01-15T05:21:25.160Z,6.60
2023-01-15T05:23:54.863Z,6.60
2023-01-15T05:26:22.321Z,6.60
2023-01-15T05:28:50.314Z,6.60
2023-01-15T05:31:19.760Z,6.60
2023-01-15T05:33:51.203Z,6.60
2023-01-15T05:36:21.293Z,6.50
2023-01-15T05:38:48.680Z,6.50
2023-01-15T05:41:37.284Z,6.50
2023-01-15T05:44:10.088Z,6.50
2023-01-15T05:46:43.172Z,6.50
2023-01-15T05:49:29.583Z,6.50
2023-01-15T05:51:56.564Z,6.50
2023-01-15T05:54:26.064Z,6.50
2023-01-15T05:56:53.719Z,6.50
2023-01-15T05:59:23.486Z,6.50
2023-01-15T06:01:50.562Z,6.50
2023-01-15T06:04:21.012Z,6.50
2023-01-15T06:06:51.286Z,6.40
2023-01-15T06:09:19.343Z,6.40
2023-01-15T06:11:47.501Z,6.40
2023-01-15T06:14:15.009Z,6.40
2023-01-15T06:16:42.222Z,6.40
2023-01-15T06:19:14.125Z,6.40
2023-01-15T06:21:41.820Z,6.40
2023-01-15T06:24:09.716Z,6.30
2023-01-15T06:26:37.403Z,6.30
2023-01-15T06:29:04.415Z,6.30
2023-01-15T06:31:32.607Z,6.30
2023-01-15T06:33:59.927Z,6.30
2023-01-15T06:36:28.341Z,6.30
2023-01-15T06:38:55.543Z,6.20
2023-01-15T06:41:43.353Z,6.20
2023-01-15T06:44:34.169Z,6.20
2023-01-15T06:47:23.473Z,6.30
2023-01-15T06:49:54.520Z,6.30
2023-01-15T06:52:23.228Z,6.30
2023-01-15T06:54:50.423Z,6.20
2023-01-15T06:57:19.056Z,6.20
2023-01-15T06:59:48.841Z,6.20
2023-01-15T07:02:16.079Z,6.20
2023-01-15T07:04:43.055Z,6.20
2023-01-15T07:07:10.102Z,6.10
2023-01-15T07:09:37.606Z,6.10
2023-01-15T07:12:04.919Z,6.10
2023-01-15T07:14:33.183Z,6.10
2023-01-15T07:17:00.204Z,6.10
2023-01-15T07:19:27.863Z,6.10
2023-01-15T07:21:55.147Z,6.00
2023-01-15T07:24:22.314Z,6.00
2023-01-15T07:26:49.541Z,6.00
2023-01-15T07:29:16.652Z,6.00
2023-01-15T07:31:43.884Z,6.00
2023-01-15T07:34:11.273Z,6.00
2023-01-15T07:36:38.625Z,5.90
2023-01-15T07:39:07.473Z,5.90
2023-01-15T07:41:56.662Z,5.90
2023-01-15T07:44:42.668Z,5.90
2023-01-15T07:47:41.755Z,5.90
2023-01-15T07:50:14.600Z,5.80
2023-01-15T07:52:42.185Z,5.80
2023-01-15T07:55:10.244Z,5.80
2023-01-15T07:57:38.663Z,5.80
2023-01-15T08:00:19.942Z,5.70
2023-01-15T08:02:49.801Z,5.70
2023-01-15T08:05:19.744Z,5.70
2023-01-15T08:07:47.454Z,5.70
2023-01-15T08:10:25.393Z,5.70
2023-01-15T08:13:11.353Z,5.80
2023-01-15T08:15:40.683Z,5.80
2023-01-15T08:18:07.734Z,5.80
2023-01-15T08:20:36.322Z,5.80
2023-01-15T08:23:03.692Z,5.80
2023-01-15T08:25:30.845Z,5.80
2023-01-15T08:28:02.302Z,5.80
2023-01-15T08:30:32.117Z,5.80
2023-01-15T08:33:03.305Z,5.90
2023-01-15T08:35:31.930Z,5.90
2023-01-15T08:37:59.087Z,5.90
2023-01-15T08:40:26.324Z,5.90
2023-01-15T08:42:56.402Z,5.90
2023-01-15T08:45:26.176Z,5.90
2023-01-15T08:48:00.414Z,5.90
2023-01-15T08:50:27.436Z,5.90
2023-01-15T08:52:54.583Z,5.90
2023-01-15T08:55:21.816Z,6.00
2023-01-15T08:57:49.141Z,6.00
2023-01-15T09:00:20.022Z,6.00
2023-01-15T09:02:49.918Z,6.00
2023-01-15T09:05:17.518Z,6.10
2023-01-15T09:07:44.576Z,6.10
2023-01-15T09:10:11.845Z,6.10
2023-01-15T09:12:42.211Z,6.20
2023-01-15T09:15:09.939Z,6.20
2023-01-15T09:17:40.852Z,6.20
2023-01-15T09:20:10.334Z,6.30
2023-01-15T09:22:40.361Z,6.30
2023-01-15T09:25:07.922Z,6.30
2023-01-15T09:27:35.487Z,6.30
2023-01-15T09:30:02.953Z,6.30
2023-01-15T09:32:30.093Z,6.30
2023-01-15T09:34:57.203Z,6.30
2023-01-15T09:37:24.304Z,6.30
2023-01-15T09:39:51.302Z,6.40
2023-01-15T09:42:39.325Z,6.50
2023-01-15T09:45:24.390Z,6.70
2023-01-15T09:48:09.673Z,6.80
2023-01-15T09:50:55.028Z,6.80
2023-01-15T09:53:34.372Z,6.90
2023-01-15T09:56:03.247Z,6.80
2023-01-15T09:58:41.365Z,6.80
2023-01-15T10:01:20.705Z,6.90
2023-01-15T10:03:59.693Z,7.10
2023-01-15T10:06:39.897Z,7.10
2023-01-15T10:09:21.779Z,7.10
2023-01-15T10:12:34.867Z,7.20
2023-01-15T10:15:14.129Z,7.20
2023-01-15T10:17:48.508Z,7.30
2023-01-15T10:20:34.073Z,7.30
2023-01-15T10:23:30.602Z,7.30
2023-01-15T10:26:25.712Z,7.20
2023-01-15T10:29:12.177Z,7.30
2023-01-15T10:31:54.769Z,7.20
2023-01-15T10:35:18.156Z,7.30
2023-01-15T10:37:57.272Z,7.40
2023-01-15T10:40:50.533Z,7.40
2023-01-15T10:43:41.768Z,7.40
2023-01-15T10:46:18.199Z,7.40
2023-01-15T10:48:51.966Z,7.40
2023-01-15T10:51:26.926Z,7.30
2023-01-15T10:54:05.069Z,7.20
2023-01-15T10:56:37.638Z,7.20
2023-01-15T10:59:34.250Z,7.30
2023-01-15T11:02:05.238Z,7.20
2023-01-15T11:04:33.257Z,7.10
2023-01-15T11:07:02.536Z,7.40
2023-01-15T11:09:34.778Z,7.50
2023-01-15T11:12:18.991Z,7.60
2023-01-15T11:15:05.654Z,7.70
2023-01-15T11:18:04.573Z,7.40
2023-01-15T11:20:36.851Z,7.30
2023-01-15T11:23:09.962Z,7.30
2023-01-15T11:25:39.849Z,7.30
2023-01-15T11:28:09.941Z,7.30
2023-01-15T11:30:38.630Z,7.20
2023-01-15T11:33:18.907Z,7.20
2023-01-15T11:36:00.945Z,7.20
2023-01-15T11:38:29.761Z,7.30
2023-01-15T11:41:00.092Z,7.20
2023-01-15T11:43:49.086Z,7.20
2023-01-15T11:46:47.281Z,7.20
2023-01-15T11:49:40.247Z,7.20
2023-01-15T11:52:29.711Z,7.00
2023-01-15T11:54:58.147Z,6.90
2023-01-15T11:57:34.974Z,6.80
2023-01-15T12:00:04.592Z,6.80
2023-01-15T12:02:58.723Z,6.70
2023-01-15T12:05:34.297Z,6.70
2023-01-15T12:08:38.887Z,6.80
2023-01-15T12:11:30.551Z,6.70
2023-01-15T12:14:25.576Z,6.70
2023-01-15T12:17:05.935Z,6.80
2023-01-15T12:20:05.507Z,6.80
2023-01-15T12:22:57.415Z,6.80
2023-01-15T12:25:27.781Z,6.80
2023-01-15T12:28:07.996Z,6.90
2023-01-15T12:30:55.098Z,6.90
2023-01-15T12:33:43.345Z,6.90
2023-01-15T12:36:21.787Z,7.00
2023-01-15T12:39:12.607Z,7.10
2023-01-15T12:42:02.607Z,7.10
2023-01-15T12:44:48.088Z,7.10
2023-01-15T12:47:19.323Z,7.20
2023-01-15T12:50:01.025Z,7.30
2023-01-15T12:52:37.597Z,7.40
2023-01-15T12:55:15.857Z,7.40
2023-01-15T12:57:53.527Z,7.30
2023-01-15T13:00:33.045Z,7.30
2023-01-15T13:03:25.227Z,7.30
2023-01-15T13:06:00.397Z,7.40
2023-01-15T13:08:55.246Z,7.60
2023-01-15T13:11:22.613Z,7.70
2023-01-15T13:13:59.090Z,7.60
2023-01-15T13:16:54.272Z,7.60
2023-01-15T13:19:33.152Z,7.50
2023-01-15T13:22:17.791Z,7.40
2023-01-15T13:25:40.482Z,7.30
2023-01-15T13:28:39.103Z,7.20
2023-01-15T13:31:36.502Z,7.10
2023-01-15T13:34:13.499Z,7.10
2023-01-15T13:36:48.756Z,7.10
2023-01-15T13:39:25.154Z,7.10
2023-01-15T13:42:12.632Z,7.30
2023-01-15T13:44:49.671Z,7.40
2023-01-15T13:47:24.843Z,7.50
2023-01-15T13:49:56.236Z,7.50
2023-01-15T13:52:36.100Z,7.50
2023-01-15T13:55:29.462Z,7.50
2023-01-15T13:57:58.262Z,7.50
2023-01-15T14:00:36.914Z,7.50
2023-01-15T14:03:28.446Z,7.60
2023-01-15T14:06:04.599Z,7.60
2023-01-15T14:08:41.773Z,7.70
2023-01-15T14:11:35.317Z,7.60
2023-01-15T14:14:16.872Z,7.60
2023-01-15T14:16:47.041Z,7.60
2023-01-15T14:19:25.370Z,7.60
2023-01-15T14:22:15.823Z,7.60
2023-01-15T14:25:01.831Z,7.70
2023-01-15T14:27:57.697Z,7.70
2023-01-15T14:30:52.589Z,7.70
2023-01-15T14:33:53.961Z,7.70
2023-01-15T14:36:41.373Z,7.70
2023-01-15T14:39:39.228Z,7.70
2023-01-15T14:42:28.221Z,7.70
2023-01-15T14:45:06.175Z,7.70
2023-01-15T14:47:54.143Z,7.70
2023-01-15T14:50:43.912Z,7.70
2023-01-15T14:53:18.809Z,7.70
2023-01-15T14:55:53.649Z,7.70
2023-01-15T14:58:49.050Z,7.60
2023-01-15T15:01:22.053Z,7.50
2023-01-15T15:04:12.895Z,7.60
2023-01-15T15:07:17.543Z,7.60
2023-01-15T15:10:19.650Z,7.60
2023-01-15T15:13:05.166Z,7.60
2023-01-15T15:15:38.229Z,7.60
2023-01-15T15:18:22.724Z,7.60
2023-01-15T15:20:59.193Z,7.50
2023-01-15T15:23:43.568Z,7.50
2023-01-15T15:26:30.359Z,7.50
2023-01-15T15:29:15.638Z,7.50
2023-01-15T15:32:00.246Z,7.40
2023-01-15T15:34:51.429Z,7.30
2023-01-15T15:37:21.771Z,7.20
2023-01-15T15:40:03.385Z,7.20
2023-01-15T15:42:59.723Z,7.10
2023-01-15T15:45:48.379Z,7.00
2023-01-15T15:49:00.628Z,7.00
2023-01-15T15:51:38.327Z,6.90
2023-01-15T15:54:08.955Z,6.90
2023-01-15T15:56:44.066Z,6.90
2023-01-15T15:59:26.368Z,6.80
2023-01-15T16:01:54.438Z,6.80
2023-01-15T16:04:21.720Z,6.80
2023-01-15T16:06:49.175Z,6.80
2023-01-15T16:09:24.536Z,6.70
2023-01-15T16:11:57.216Z,6.70
2023-01-15T16:14:26.432Z,6.80
2023-01-15T16:16:54.432Z,6.70
2023-01-15T16:19:25.579Z,6.70
2023-01-15T16:21:53.926Z,6.70
2023-01-15T16:24:29.560Z,6.60
2023-01-15T16:27:21.794Z,6.60
2023-01-15T16:29:51.504Z,6.60
2023-01-15T16:32:24.495Z,6.60
2023-01-15T16:35:06.631Z,6.50
2023-01-15T16:37:35.791Z,6.50
2023-01-15T16:40:08.215Z,6.60
2023-01-15T16:42:40.107Z,6.60
2023-01-15T16:45:23.899Z,6.50
2023-01-15T16:48:11.590Z,6.50
2023-01-15T16:50:43.144Z,6.50
2023-01-15T16:53:39.679Z,6.40
2023-01-15T16:56:25.445Z,6.40
2023-01-15T16:58:52.645Z,6.30
2023-01-15T17:01:38.314Z,6.20
2023-01-15T17:04:29.053Z,6.30
2023-01-15T17:07:01.549Z,6.20
2023-01-15T17:09:33.885Z,6.20
2023-01-15T17:12:09.943Z,6.20
2023-01-15T17:14:37.031Z,6.10
2023-01-15T17:17:36.998Z,6.10
2023-01-15T17:20:10.805Z,6.00
2023-01-15T17:22:43.280Z,6.00
2023-01-15T17:25:31.058Z,6.00
2023-01-15T17:28:03.519Z,6.00
2023-01-15T17:30:33.211Z,5.90
2023-01-15T17:33:02.145Z,5.90
2023-01-15T17:35:36.302Z,5.90
2023-01-15T17:38:04.923Z,5.90
2023-01-15T17:40:32.907Z,5.90
2023-01-15T17:43:00.307Z,5.90
2023-01-15T17:45:30.709Z,5.90
2023-01-15T17:47:58.626Z,5.80
2023-01-15T17:50:25.785Z,5.80
2023-01-15T17:52:52.869Z,5.80
2023-01-15T17:55:41.179Z,5.80
2023-01-15T17:58:31.301Z,5.70
2023-01-15T18:01:17.692Z,5.70
2023-01-15T18:04:10.254Z,5.70
2023-01-15T18:06:38.221Z,5.70
2023-01-15T18:09:07.736Z,5.70
2023-01-15T18:11:35.006Z,5.60
2023-01-15T18:14:02.402Z,5.60
2023-01-15T18:16:30.065Z,5.60
2023-01-15T18:18:57.115Z,5.60
2023-01-15T18:21:26.806Z,5.60
2023-01-15T18:23:53.989Z,5.60
2023-01-15T18:26:21.210Z,5.50
2023-01-15T18:28:48.779Z,5.60
2023-01-15T18:31:19.295Z,5.50
2023-01-15T18:33:46.623Z,5.50
2023-01-15T18:36:18.319Z,5.60
2023-01-15T18:38:46.248Z,5.50
2023-01-15T18:41:52.012Z,5.50
2023-01-15T18:44:40.728Z,5.50
2023-01-15T18:47:12.620Z,5.50
2023-01-15T18:49:44.323Z,5.50
2023-01-15T18:52:32.585Z,5.40
2023-01-15T18:54:59.918Z,5.40
2023-01-15T18:57:27.061Z,5.40
2023-01-15T18:59:54.100Z,5.40
2023-01-15T19:02:22.203Z,5.40
2023-01-15T19:04:49.787Z,5.40
2023-01-15T19:07:17.991Z,5.30
2023-01-15T19:09:45.301Z,5.40
2023-01-15T19:12:13.756Z,5.30
2023-01-15T19:14:59.444Z,5.30
2023-01-15T19:17:44.927Z,5.30
2023-01-15T19:20:15.155Z,5.30
2023-01-15T19:23:00.234Z,5.30
2023-01-15T19:25:29.776Z,5.40
2023-01-15T19:27:58.184Z,5.30
2023-01-15T19:30:27.869Z,5.30
2023-01-15T19:32:55.845Z,5.30
2023-01-15T19:35:23.084Z,5.20
2023-01-15T19:37:50.424Z,5.20
2023-01-15T19:40:23.929Z,5.30
2023-01-15T19:43:10.102Z,5.30
2023-01-15T19:46:03.956Z,5.30
2023-01-15T19:48:49.543Z,5.30
2023-01-15T19:51:16.551Z,5.40
2023-01-15T19:53:43.563Z,5.30
2023-01-15T19:56:10.816Z,5.40
2023-01-15T19:58:37.954Z,5.30
2023-01-15T20:01:05.233Z,5.40
2023-01-15T20:03:32.808Z,5.30
2023-01-15T20:05:59.981Z,5.30
2023-01-15T20:08:27.289Z,5.30
2023-01-15T20:10:54.403Z,5.30
2023-01-15T20:13:42.696Z,5.30
2023-01-15T20:16:15.504Z,5.30
2023-01-15T20:18:42.640Z,5.30
2023-01-15T20:21:14.616Z,5.30
2023-01-15T20:23:43.626Z,5.30
2023-01-15T20:26:13.342Z,5.20
2023-01-15T20:28:42.700Z,5.30
2023-01-15T20:31:17.822Z,5.30
2023-01-15T20:33:46.015Z,5.30
2023-01-15T20:36:13.806Z,5.20
2023-01-15T20:38:42.260Z,5.20
2023-01-15T20:41:29.512Z,5.10
2023-01-15T20:44:16.720Z,5.20
2023-01-15T20:46:43.918Z,5.10
2023-01-15T20:49:28.466Z,5.10
2023-01-15T20:51:56.857Z,5.20
2023-01-15T20:54:26.324Z,5.20
2023-01-15T20:56:53.749Z,5.20
2023-01-15T20:59:22.519Z,5.20
2023-01-15T21:01:49.740Z,5.20
2023-01-15T21:04:19.340Z,5.20
2023-01-15T21:06:46.852Z,5.20
2023-01-15T21:09:14.137Z,5.20
2023-01-15T21:11:42.975Z,5.30
2023-01-15T21:14:10.121Z,5.30
2023-01-15T21:16:38.761Z,5.30
2023-01-15T21:19:06.118Z,5.30
2023-01-15T21:21:33.355Z,5.30
2023-01-15T21:24:02.044Z,5.30
2023-01-15T21:26:31.427Z,5.30
2023-01-15T21:28:59.235Z,5.30
2023-01-15T21:31:27.981Z,5.30
2023-01-15T21:33:56.437Z,5.40
2023-01-15T21:36:24.432Z,5.40
2023-01-15T21:38:56.189Z,5.40
2023-01-15T21:41:45.373Z,5.40
2023-01-15T21:44:36.100Z,5.40
2023-01-15T21:47:09.131Z,5.40
2023-01-15T21:49:38.863Z,5.50
2023-01-15T21:52:09.603Z,5.50
2023-01-15T21:54:37.039Z,5.50
2023-01-15T21:57:04.760Z,5.50
2023-01-15T21:59:32.096Z,5.50
2023-01-15T22:01:59.984Z,5.50
2023-01-15T22:04:34.348Z,5.50
2023-01-15T22:07:02.307Z,5.50
2023-01-15T22:09:29.726Z,5.50
2023-01-15T22:11:57.907Z,5.50
2023-01-15T22:14:29.051Z,5.50
2023-01-15T22:17:01.168Z,5.50
2023-01-15T22:19:29.819Z,5.50
2023-01-15T22:21:59.894Z,5.50
2023-01-15T22:24:31.508Z,5.50
2023-01-15T22:27:02.354Z,5.50
2023-01-15T22:29:40.599Z,5.50
2023-01-15T22:32:09.716Z,5.50
2023-01-15T22:34:37.140Z,5.50
2023-01-15T22:37:04.744Z,5.40
2023-01-15T22:39:34.385Z,5.40
2023-01-15T22:42:20.297Z,5.40
2023-01-15T22:44:49.003Z,5.40
2023-01-15T22:47:17.555Z,5.40
2023-01-15T22:49:45.073Z,5.40
2023-01-15T22:52:13.510Z,5.40
2023-01-15T22:54:45.373Z,5.40
2023-01-15T22:57:13.425Z,5.40
2023-01-15T22:59:42.401Z,5.40
2023-01-15T23:02:11.227Z,5.40
2023-01-15T23:04:38.985Z,5.40
2023-01-15T23:07:06.564Z,5.40
2023-01-15T23:09:33.663Z,5.40
2023-01-15T23:12:01.668Z,5.40
2023-01-15T23:14:28.951Z,5.40
2023-01-15T23:16:56.068Z,5.30
2023-01-15T23:19:24.949Z,5.30
2023-01-15T23:22:00.760Z,5.30
2023-01-15T23:24:28.006Z,5.30
2023-01-15T23:26:55.165Z,5.30
2023-01-15T23:29:22.277Z,5.30
2023-01-15T23:31:49.649Z,5.20
2023-01-15T23:34:16.806Z,5.20
2023-01-15T23:36:44.004Z,5.20
2023-01-15T23:39:11.296Z,5.10
2023-01-15T23:41:59.913Z,5.10
2023-01-15T23:44:45.576Z,5.10
2023-01-15T23:47:12.833Z,5.10
2023-01-15T23:49:39.811Z,5.10
2023-01-15T23:52:07.057Z,5.00
2023-01-15T23:54:34.055Z,5.10
2023-01-15T23:57:02.342Z,5.00
2023-01-15T23:59:29.574Z,4.90
